Segeza, Russia
Current Conditions -  °F | °C
As of 11:30 AM on Friday 24 Oct 2014 (Local Time) from ULPB Reporting Station
Broken Clouds Broken Clouds  
Wind Chill: 23°   Ceiling: 6600
Heat Index: 23°   Visibility: 6mi
Dew Point: 21°   Wind: 0mph
Humidity: 93%   Direction: NA
Pressure: 30.68"   Gusts: NA
Location:  63.75°N, 34.35°E
Report Text: ULPB 240830Z 00000MPS 9000 SCT015 BKN066 M05/M06 Q1039 TEMPO2500 BR RMK QFE776/1034 SC050
Loading
Personal Weather Stations






























Interactive Weather Map
Tropical Storm Tracking
New forecast layout! Learn more

10-Day Weather Forecast

Advertisements
Track Severe Weather on mobile